South Haven, KS (67140)

10:48 PM CDT on April 25, 2015 (GMT -0500)
MW Farms | | Change Station
CLOSE
Current Station
Personal Weather Station
Location: Renfrow, OK
Elevation: 1214 ft
Nearby Weather Stations

Elev 1214 ft 36.93 °N, 97.62 °W | Updated 12 minutes ago

Clear
Clear
61.3 °F
Feels Like 61.3 °F
N
14.0
Wind Variable Wind from NE

Today
High -- | Low -- °F
--% Chance of Precip.
Yesterday
High -- | Low -- °F
Precip. -- in
6:42 AM 8:13 PM
First Quarter, 51% visible
Pressure 29.71 in
Visibility 10.0 miles
Clouds Clear
Dew Point 56 °F
Humidity 82%
Rainfall 0.00 in
Snow Depth Not available.
UV 0 out of 12
Pollen 11.20 out of 12
Air Quality Not available.
Flu Activity Sporadic
METAR KWLD 260254Z AUTO 04011KT 10SM CLR 17/12 A2973 RMK AO2 SLP059 T01670122 53028

More Conditions Fewer Conditions

Pressure 29.71 in
Visibility 10.0 miles
Clouds Clear
Dew Point 56 °F
Humidity 82%
Rainfall 0.00 in
Snow Depth Not available.
UV 0 out of 12
Pollen 11.20 out of 12
Air Quality Not available.
Flu Activity Sporadic
METAR KWLD 260254Z AUTO 04011KT 10SM CLR 17/12 A2973 RMK AO2 SLP059 T01670122 53028

More Conditions Fewer Conditions

The full scope of the disaster following a powerful 7.8-magnitude earthquake in Nepal may not come into view for days, but global charities are already sending emergency aid. Click to see how you can help.

10-Day Weather Forecast

Almanac

Astronomy

Apr. 25, 2015 Rise Set
Actual Time
Civil Twilight
Nautical Twilight
Astronomical Twilight
Moon
Length of Visible Light
Length of Day
Tomorrow will be .
, % of the Moon is Illuminated

Today's Extremes

State Highs State Lows

Community

WunderPhotos

Upload Photos

1,816,929 photos uploaded!

WunderBlogs® & News

Nearby

Air Quality

  Air Quality AQ Index Pollutant
Not available.

Snow Depth

Station Depth Elevation

Earthquake Activity

City Distance Mag. Time & Date
Minimum magnitude displayed is 2.5.

Coastal Water Temperatures

Place Temperature

Stations

Nearby Weather Stations

Station Location Temp. Windchill Dew Point Humidity Wind Precip. Elev Updated Type